Time;durP1;ratioP1;P1;durP2;ratioP2;P2;SDS_P1;SDS_P2;PMS_P1;PMS_P2;Temp;Humidity;BMP_temperature;BMP_pressure;BME280_temperature;BME280_humidity;BME280_pressure;Samples;Min_cycle;Max_cycle;Signal;HPM_P1;HPM_P2
2021/09/07 00:01:35;;;;;;;13.93;9.28;;;;;;;11.89;58.00;101012.70;1622864;87;21050;-68
2021/09/07 00:04:01;;;;;;;17.45;11.28;;;;;;;11.87;57.38;101012.62;1590395;90;21097;-68
2021/09/07 00:06:29;;;;;;;16.57;9.38;;;;;;;11.84;59.08;101013.08;1610466;88;21928;-69
2021/09/07 00:08:56;;;;;;;14.93;9.70;;;;;;;11.75;58.38;101013.36;1594674;88;21066;-70
2021/09/07 00:11:25;;;;;;;13.68;9.10;;;;;;;11.73;58.17;101011.43;1630642;86;21524;-68
2021/09/07 00:13:52;;;;;;;25.50;12.13;;;;;;;11.73;57.64;101010.09;1646577;87;21019;-70
2021/09/07 00:16:19;;;;;;;17.35;10.10;;;;;;;11.74;58.43;101007.70;1669763;85;21032;-70
2021/09/07 00:18:48;;;;;;;13.13;8.78;;;;;;;11.73;58.14;101010.61;1648841;85;20979;-75
2021/09/07 00:21:14;;;;;;;25.30;13.83;;;;;;;11.68;58.18;101010.42;1644465;87;21059;-77
2021/09/07 00:23:41;;;;;;;20.68;14.70;;;;;;;11.63;59.62;101005.70;1643888;86;20936;-66
2021/09/07 00:26:08;;;;;;;13.10;8.70;;;;;;;11.51;61.01;101012.87;1659436;86;21071;-73
2021/09/07 00:28:34;;;;;;;18.50;8.20;;;;;;;11.43;59.38;101013.17;1669500;85;21327;-75
2021/09/07 00:31:02;;;;;;;11.15;7.90;;;;;;;11.43;58.29;101015.04;1631313;87;21560;-72
2021/09/07 00:33:30;;;;;;;17.35;8.15;;;;;;;11.45;57.66;101015.13;1653624;86;21151;-69
2021/09/07 00:35:57;;;;;;;12.13;8.38;;;;;;;11.49;57.04;101005.55;1655316;85;21059;-72
2021/09/07 00:38:24;;;;;;;10.20;6.42;;;;;;;11.52;56.60;101012.35;1647093;85;21120;-70
2021/09/07 00:40:53;;;;;;;11.95;7.80;;;;;;;11.57;56.06;101013.85;1667271;86;21528;-68
2021/09/07 00:43:20;;;;;;;13.35;8.23;;;;;;;11.59;55.88;101011.25;1667602;85;21126;-71
2021/09/07 00:45:47;;;;;;;20.50;8.33;;;;;;;11.63;55.67;101016.48;1649982;85;21078;-69
2021/09/07 00:48:14;;;;;;;12.60;8.08;;;;;;;11.65;55.51;101011.71;1645618;86;21044;-66
2021/09/07 00:50:42;;;;;;;16.42;10.10;;;;;;;11.67;55.54;101011.47;1673023;85;21525;-67
2021/09/07 00:53:08;;;;;;;14.18;8.25;;;;;;;11.66;54.62;101012.50;1650220;85;21099;-66
2021/09/07 00:55:35;;;;;;;17.37;8.85;;;;;;;11.68;54.08;101009.90;1657013;86;21154;-66
2021/09/07 00:58:06;;;;;;;20.72;9.65;;;;;;;11.72;54.05;101011.61;1663199;84;21014;-66
2021/09/07 01:00:32;;;;;;;17.35;8.98;;;;;;;11.73;53.86;101011.43;1650363;86;21000;-67
2021/09/07 01:03:00;;;;;;;13.28;8.48;;;;;;;11.75;53.72;101007.14;1653255;85;21547;-68
2021/09/07 01:05:28;;;;;;;15.08;8.70;;;;;;;11.78;53.50;101008.06;1642672;87;21031;-66
2021/09/07 01:07:55;;;;;;;17.45;10.25;;;;;;;11.80;53.44;101009.98;1655918;86;21804;-67
2021/09/07 01:10:23;;;;;;;19.95;9.95;;;;;;;11.80;53.59;101005.42;1670048;86;21564;-67
2021/09/07 01:12:53;;;;;;;14.13;9.88;;;;;;;11.80;53.63;101004.59;1678611;85;20966;-67
2021/09/07 01:15:20;;;;;;;13.43;8.88;;;;;;;11.81;53.55;100999.52;1680475;85;21062;-67
2021/09/07 01:17:48;;;;;;;11.10;9.08;;;;;;;11.81;53.66;100999.52;1676162;85;21027;-69
2021/09/07 01:20:16;;;;;;;17.62;9.98;;;;;;;11.79;53.64;101004.32;1658999;85;21161;-68
2021/09/07 01:22:43;;;;;;;19.40;10.72;;;;;;;11.79;53.75;100997.06;1668947;85;20924;-67
2021/09/07 01:25:11;;;;;;;13.05;9.68;;;;;;;11.80;53.99;100999.20;1653231;86;21057;-66
2021/09/07 01:27:38;;;;;;;21.15;10.48;;;;;;;11.79;54.04;100995.72;1642597;85;21599;-67
2021/09/07 01:30:07;;;;;;;11.97;9.68;;;;;;;11.79;54.09;101003.80;1650542;86;21058;-68
2021/09/07 01:32:33;;;;;;;19.25;10.82;;;;;;;11.81;54.22;101003.55;1680865;85;21540;-67
2021/09/07 01:35:00;;;;;;;17.37;10.40;;;;;;;11.82;54.27;101000.34;1652385;86;21067;-68
2021/09/07 01:37:27;;;;;;;16.25;11.18;;;;;;;11.80;54.23;101002.73;1652793;86;21001;-67
2021/09/07 01:39:55;;;;;;;16.60;9.98;;;;;;;11.79;54.18;101010.54;1672028;85;21035;-69
2021/09/07 01:42:24;;;;;;;24.07;11.97;;;;;;;11.77;54.44;101006.41;1680659;85;21047;-67
2021/09/07 01:44:50;;;;;;;14.85;10.18;;;;;;;11.76;54.58;101003.41;1659654;86;21153;-67
2021/09/07 01:47:17;;;;;;;14.40;9.95;;;;;;;11.74;54.69;101003.66;1680177;85;21121;-66
2021/09/07 01:49:46;;;;;;;13.10;8.45;;;;;;;11.70;54.82;100996.21;1680584;85;20959;-68
2021/09/07 01:52:15;;;;;;;12.37;8.70;;;;;;;11.68;54.87;100999.64;1680511;85;21560;-67
2021/09/07 01:54:46;;;;;;;15.75;9.73;;;;;;;11.65;54.77;101000.93;1652010;85;21070;-67
2021/09/07 01:57:14;;;;;;;12.58;8.48;;;;;;;11.61;55.14;100994.84;1649205;86;21066;-67
2021/09/07 01:59:42;;;;;;;13.50;8.83;;;;;;;11.60;55.23;101003.99;1655478;85;20975;-68
2021/09/07 02:02:09;;;;;;;15.10;9.85;;;;;;;11.59;55.00;101000.99;1625626;88;20960;-67
2021/09/07 02:04:36;;;;;;;12.75;9.03;;;;;;;11.60;54.94;101001.30;1680458;85;21488;-68
2021/09/07 02:07:04;;;;;;;16.12;9.35;;;;;;;11.60;54.89;100999.95;1652775;85;21532;-68
2021/09/07 02:09:31;;;;;;;13.45;9.33;;;;;;;11.60;54.92;100999.95;1679921;84;21214;-66
2021/09/07 02:11:58;;;;;;;16.80;10.30;;;;;;;11.57;55.00;100993.13;1649996;86;21042;-67
2021/09/07 02:14:28;;;;;;;18.27;9.05;;;;;;;11.56;54.90;100994.72;1621497;88;21001;-68
2021/09/07 02:16:56;;;;;;;15.32;10.15;;;;;;;11.56;54.96;101000.10;1621461;87;21571;-69
2021/09/07 02:19:24;;;;;;;17.00;9.85;;;;;;;11.54;54.86;101000.31;1618991;88;20999;-69
2021/09/07 02:21:51;;;;;;;16.67;9.03;;;;;;;11.51;54.97;100999.40;1619696;87;21134;-68
2021/09/07 02:24:18;;;;;;;16.97;10.20;;;;;;;11.49;54.96;100997.47;1618996;88;20967;-70
2021/09/07 02:26:44;;;;;;;15.60;9.75;;;;;;;11.48;55.08;101001.72;1597953;88;21038;-66
2021/09/07 02:29:13;;;;;;;15.85;9.43;;;;;;;11.46;55.15;100997.10;1619132;88;21144;-67
2021/09/07 02:31:40;;;;;;;17.12;11.30;;;;;;;11.44;55.24;101000.53;1648135;87;21587;-67
2021/09/07 02:34:08;;;;;;;23.87;9.95;;;;;;;11.42;55.17;100999.39;1642525;87;22168;-69
2021/09/07 02:36:37;;;;;;;19.82;9.95;;;;;;;11.41;55.07;101001.81;1620591;87;21094;-66
2021/09/07 02:39:05;;;;;;;17.73;11.78;;;;;;;11.40;55.40;101002.03;1619144;88;21071;-66
2021/09/07 02:41:32;;;;;;;18.12;10.65;;;;;;;11.36;55.53;100997.09;1619006;88;21114;-66
2021/09/07 02:43:59;;;;;;;15.60;10.32;;;;;;;11.32;55.53;100999.91;1620517;87;21051;-66
2021/09/07 02:46:26;;;;;;;15.58;9.78;;;;;;;11.25;56.88;101007.25;1669835;86;23412;-67
2021/09/07 02:48:54;;;;;;;14.23;10.78;;;;;;;11.14;56.48;101006.62;1669067;86;21063;-67
2021/09/07 02:51:21;;;;;;;13.32;9.20;;;;;;;11.12;56.37;101005.20;1669574;85;21064;-68
2021/09/07 02:53:48;;;;;;;12.95;9.08;;;;;;;11.12;56.44;101010.59;1669963;86;20990;-68
2021/09/07 02:56:16;;;;;;;17.00;9.98;;;;;;;11.11;56.39;101007.59;1649954;85;21086;-67
2021/09/07 02:58:44;;;;;;;14.83;10.28;;;;;;;11.12;56.21;101010.08;1642878;87;20954;-67
2021/09/07 03:01:12;;;;;;;19.05;11.15;;;;;;;11.12;56.09;101018.15;1642609;87;21023;-68
2021/09/07 03:03:39;;;;;;;16.05;9.33;;;;;;;11.13;55.95;101018.42;1642606;87;20991;-68
2021/09/07 03:06:05;;;;;;;11.57;8.00;;;;;;;11.15;55.91;101014.17;1647240;86;21006;-68
2021/09/07 03:08:32;;;;;;;13.60;9.08;;;;;;;11.16;55.64;101015.31;1647134;85;21381;-67
2021/09/07 03:11:00;;;;;;;13.80;8.85;;;;;;;11.19;55.64;101015.38;1645496;87;21508;-68
2021/09/07 03:13:27;;;;;;;18.07;10.65;;;;;;;11.21;55.72;101015.99;1641904;86;21071;-67
2021/09/07 03:15:53;;;;;;;14.38;8.95;;;;;;;11.21;56.36;101014.64;1672958;85;21114;-66
2021/09/07 03:18:20;;;;;;;11.80;9.08;;;;;;;11.15;55.78;101014.17;1680747;85;21268;-68
2021/09/07 03:20:48;;;;;;;12.20;8.88;;;;;;;11.16;55.49;101015.31;1680369;85;21003;-69
2021/09/07 03:23:16;;;;;;;14.23;8.55;;;;;;;11.20;55.33;101019.20;1652466;86;21500;-68
2021/09/07 03:25:44;;;;;;;13.58;8.48;;;;;;;11.21;55.43;101018.17;1679239;84;21124;-67
2021/09/07 03:28:11;;;;;;;11.97;8.00;;;;;;;11.21;55.34;101023.55;1680710;85;20986;-67
2021/09/07 03:30:39;;;;;;;12.35;8.15;;;;;;;11.24;55.31;101024.97;1652313;86;21106;-68
2021/09/07 03:33:05;;;;;;;16.60;9.15;;;;;;;11.26;55.21;101018.84;1680367;84;21058;-67
2021/09/07 03:35:33;;;;;;;13.75;7.47;;;;;;;11.29;55.39;101026.47;1651671;86;21161;-67
2021/09/07 03:38:00;;;;;;;17.65;8.83;;;;;;;11.28;55.46;101022.95;1680605;85;21010;-68
2021/09/07 03:40:27;;;;;;;11.18;8.15;;;;;;;11.30;55.46;101025.44;1680572;85;21575;-67
2021/09/07 03:42:55;;;;;;;11.05;7.95;;;;;;;11.30;55.48;101020.88;1680661;83;20996;-68
2021/09/07 03:45:23;;;;;;;12.73;8.38;;;;;;;11.32;55.39;101022.80;1678454;85;22017;-68
2021/09/07 03:47:50;;;;;;;13.05;8.68;;;;;;;11.34;55.57;101022.08;1676442;85;21081;-68
2021/09/07 03:50:17;;;;;;;17.23;8.18;;;;;;;11.36;55.68;101025.38;1650977;85;21046;-67
2021/09/07 03:52:46;;;;;;;12.65;7.55;;;;;;;11.36;55.73;101026.73;1676662;85;21018;-66
2021/09/07 03:55:14;;;;;;;12.70;8.30;;;;;;;11.36;55.86;101019.17;1630344;85;21641;-67
2021/09/07 03:57:41;;;;;;;16.97;8.83;;;;;;;11.36;55.94;101021.34;1655688;85;21070;-67
2021/09/07 04:00:10;;;;;;;16.82;8.08;;;;;;;11.40;56.02;101031.14;1602742;87;21204;-66
2021/09/07 04:02:39;;;;;;;11.50;8.28;;;;;;;11.40;56.04;101020.36;1659139;85;21107;-68
2021/09/07 04:05:09;;;;;;;19.42;11.78;;;;;;;11.42;56.04;101026.34;1620831;87;21051;-68
2021/09/07 04:07:38;;;;;;;15.40;9.53;;;;;;;11.42;56.40;101021.47;1655702;85;22216;-67
2021/09/07 04:10:07;;;;;;;13.95;8.40;;;;;;;11.37;56.52;101020.27;1649005;87;21104;-67
2021/09/07 04:12:33;;;;;;;15.30;8.13;;;;;;;11.35;56.44;101018.34;1647597;86;21413;-70
2021/09/07 04:15:03;;;;;;;15.20;8.68;;;;;;;11.38;56.56;101026.48;1651373;86;20971;-68
2021/09/07 04:17:30;;;;;;;14.55;8.23;;;;;;;11.41;56.56;101025.23;1628430;86;21043;-72
2021/09/07 04:19:57;;;;;;;17.30;8.25;;;;;;;11.43;56.62;101027.98;1651758;85;21020;-67
2021/09/07 04:22:23;;;;;;;11.95;7.53;;;;;;;11.47;56.56;101028.36;1629895;87;21042;-66
2021/09/07 04:24:50;;;;;;;10.08;7.55;;;;;;;11.48;56.54;101029.50;1673066;85;21124;-67
2021/09/07 04:27:18;;;;;;;15.38;8.45;;;;;;;11.49;56.51;101025.76;1651070;87;20912;-70
2021/09/07 04:29:45;;;;;;;14.55;9.40;;;;;;;11.51;56.48;101030.94;1677115;85;21083;-67
2021/09/07 04:32:11;;;;;;;12.88;8.03;;;;;;;11.51;56.52;101029.03;1650818;86;21071;-67
2021/09/07 04:34:38;;;;;;;11.60;8.43;;;;;;;11.53;56.60;101035.04;1641326;86;21059;-66
2021/09/07 04:37:04;;;;;;;11.53;7.85;;;;;;;11.54;56.75;101035.87;1651369;87;20992;-68
2021/09/07 04:39:31;;;;;;;11.40;7.35;;;;;;;11.56;56.63;101037.83;1654001;85;21472;-68
2021/09/07 04:41:57;;;;;;;12.90;7.53;;;;;;;11.56;56.75;101040.52;1651019;86;21059;-66
2021/09/07 04:44:25;;;;;;;12.40;7.85;;;;;;;11.56;56.72;101031.89;1649580;86;21048;-67
2021/09/07 04:46:55;;;;;;;12.05;8.23;;;;;;;11.57;56.82;101038.10;1642233;85;20975;-68
2021/09/07 04:49:23;;;;;;;16.12;8.30;;;;;;;11.57;56.79;101036.23;1650838;87;21244;-68
2021/09/07 04:51:49;;;;;;;13.35;9.05;;;;;;;11.59;56.87;101036.02;1679284;85;22183;-66
2021/09/07 04:54:16;;;;;;;10.72;7.42;;;;;;;11.61;56.73;101043.34;1678072;85;20991;-67
2021/09/07 04:56:44;;;;;;;16.90;7.60;;;;;;;11.61;56.68;101040.13;1650922;87;21107;-67
2021/09/07 04:59:10;;;;;;;11.57;7.05;;;;;;;11.62;56.68;101036.39;1678778;85;21508;-67
2021/09/07 05:01:37;;;;;;;11.83;7.10;;;;;;;11.65;56.83;101042.70;1679132;85;23189;-69
2021/09/07 05:04:04;;;;;;;9.80;7.17;;;;;;;11.70;56.91;101035.29;1635459;87;21020;-67
2021/09/07 05:06:30;;;;;;;13.83;7.30;;;;;;;11.72;57.00;101034.03;1666212;85;21028;-67
2021/09/07 05:08:56;;;;;;;13.32;6.80;;;;;;;11.74;57.16;101037.34;1624230;87;21063;-68
2021/09/07 05:11:23;;;;;;;14.85;9.20;;;;;;;11.75;57.34;101033.58;1629035;86;21111;-68
2021/09/07 05:13:51;;;;;;;15.35;7.53;;;;;;;11.77;57.65;101026.10;1635784;87;20976;-70
2021/09/07 05:16:17;;;;;;;18.75;8.28;;;;;;;11.77;57.69;101030.14;1641091;87;21040;-67
2021/09/07 05:18:45;;;;;;;11.93;7.70;;;;;;;11.78;57.72;101034.50;1648618;87;20968;-67
2021/09/07 05:21:14;;;;;;;16.55;7.60;;;;;;;11.82;58.16;101032.69;1644975;87;21087;-68
2021/09/07 05:23:40;;;;;;;18.20;8.85;;;;;;;11.86;58.12;101032.53;1641151;86;21016;-68
2021/09/07 05:26:07;;;;;;;15.63;10.08;;;;;;;11.89;58.07;101041.02;1623747;87;21069;-68
2021/09/07 05:28:34;;;;;;;12.50;6.42;;;;;;;11.93;58.06;101042.20;1624194;88;21056;-68
2021/09/07 05:31:00;;;;;;;12.95;7.08;;;;;;;11.97;58.12;101041.22;1597508;89;21106;-67
2021/09/07 05:33:27;;;;;;;9.58;6.72;;;;;;;12.02;58.11;101043.55;1597568;89;21034;-74
2021/09/07 05:35:54;;;;;;;13.70;6.87;;;;;;;12.06;58.10;101046.08;1628373;87;21099;-68
2021/09/07 05:38:22;;;;;;;10.93;6.85;;;;;;;12.10;58.41;101048.62;1628741;87;21081;-70
2021/09/07 05:40:50;;;;;;;8.75;6.03;;;;;;;12.16;58.03;101051.77;1649899;87;21492;-68
2021/09/07 05:43:16;;;;;;;10.08;6.15;;;;;;;12.23;57.82;101051.66;1600633;88;21067;-66
2021/09/07 05:45:43;;;;;;;13.13;6.58;;;;;;;12.30;57.65;101054.28;1623863;88;21067;-68
2021/09/07 05:48:10;;;;;;;11.00;6.33;;;;;;;12.36;57.85;101060.95;1602846;88;21213;-70
2021/09/07 05:50:38;;;;;;;9.48;6.25;;;;;;;12.41;57.85;101055.70;1598083;89;21029;-68
2021/09/07 05:53:04;;;;;;;10.50;6.50;;;;;;;12.50;57.63;101057.55;1624899;88;21052;-68
2021/09/07 05:55:31;;;;;;;11.90;6.97;;;;;;;12.58;57.53;101070.71;1622931;88;21043;-67
2021/09/07 05:57:57;;;;;;;10.40;6.58;;;;;;;12.65;57.37;101066.88;1623321;88;21581;-68
2021/09/07 06:00:24;;;;;;;14.18;6.40;;;;;;;12.74;57.13;101066.55;1623142;88;21052;-70
2021/09/07 06:02:52;;;;;;;14.35;5.70;;;;;;;12.82;56.71;101065.69;1602584;88;21315;-67
2021/09/07 06:05:18;;;;;;;10.00;5.75;;;;;;;12.90;56.60;101065.90;1623291;88;21036;-68
2021/09/07 06:07:45;;;;;;;12.60;6.42;;;;;;;12.98;56.39;101065.55;1649780;87;20920;-68
2021/09/07 06:10:12;;;;;;;9.83;6.45;;;;;;;13.05;55.96;101071.66;1649743;86;21058;-66
2021/09/07 06:12:39;;;;;;;8.75;5.60;;;;;;;13.13;55.59;101074.59;1649782;85;21605;-68
2021/09/07 06:15:09;;;;;;;5.05;4.20;;;;;;;13.19;55.21;101081.78;1645969;86;20972;-68
2021/09/07 06:17:35;;;;;;;12.88;5.92;;;;;;;13.25;54.91;101087.06;1622506;87;21064;-67
2021/09/07 06:20:05;;;;;;;12.07;6.58;;;;;;;13.30;54.40;101085.00;1644830;86;21091;-69
2021/09/07 06:22:32;;;;;;;8.58;5.58;;;;;;;13.36;54.22;101086.78;1611634;88;21078;-67
2021/09/07 06:24:59;;;;;;;12.43;5.72;;;;;;;13.44;54.04;101088.60;1573827;90;21087;-68
2021/09/07 06:27:27;;;;;;;8.23;5.58;;;;;;;13.51;53.84;101085.27;1596592;88;21129;-68
2021/09/07 06:29:53;;;;;;;9.93;5.62;;;;;;;13.61;53.76;101092.79;1582401;88;21592;-67
2021/09/07 06:32:19;;;;;;;8.73;4.62;;;;;;;13.68;53.39;101088.59;1603661;88;21151;-68
2021/09/07 06:34:46;;;;;;;11.88;6.12;;;;;;;13.75;53.16;101086.61;1596485;88;21084;-67
2021/09/07 06:37:14;;;;;;;10.18;5.22;;;;;;;13.83;53.12;101084.88;1593762;90;21045;-67
2021/09/07 06:39:41;;;;;;;4.90;4.10;;;;;;;13.91;52.87;101085.34;1576884;88;21132;-68
2021/09/07 06:42:08;;;;;;;11.10;5.25;;;;;;;14.00;52.56;101092.58;1593791;88;21660;-67
2021/09/07 06:44:35;;;;;;;5.83;4.60;;;;;;;14.05;52.53;101092.69;1583198;90;21041;-67
2021/09/07 06:47:01;;;;;;;12.40;5.25;;;;;;;14.10;51.98;101097.39;1573913;90;21564;-67
2021/09/07 06:49:28;;;;;;;6.45;4.85;;;;;;;14.16;51.89;101097.23;1594839;88;21051;-66
2021/09/07 06:51:55;;;;;;;6.17;3.98;;;;;;;14.23;51.60;101102.52;1622101;88;21169;-67
2021/09/07 06:54:21;;;;;;;6.42;4.78;;;;;;;14.28;51.14;101110.75;1619084;88;21043;-74
2021/09/07 06:56:49;;;;;;;6.65;4.10;;;;;;;14.32;50.65;101109.20;1621874;88;20990;-68
2021/09/07 06:59:15;;;;;;;7.75;4.80;;;;;;;14.35;50.57;101110.89;1609217;88;21023;-69
2021/09/07 07:01:42;;;;;;;6.95;4.50;;;;;;;14.39;50.47;101108.55;1612214;88;21543;-69
2021/09/07 07:04:09;;;;;;;6.33;4.60;;;;;;;14.45;50.47;101103.54;1619626;88;21162;-69
2021/09/07 07:06:37;;;;;;;6.30;4.80;;;;;;;14.51;50.32;101109.88;1598609;88;21604;-70
2021/09/07 07:09:04;;;;;;;9.03;4.92;;;;;;;14.55;50.52;101118.63;1622141;88;21516;-68
2021/09/07 07:11:32;;;;;;;6.58;3.67;;;;;;;14.62;50.29;101111.73;1619218;88;21047;-67
2021/09/07 07:13:59;;;;;;;9.13;4.62;;;;;;;14.69;50.19;101118.64;1614579;88;21056;-68
2021/09/07 07:16:25;;;;;;;14.50;4.97;;;;;;;14.74;49.54;101108.42;1601301;88;22094;-67
2021/09/07 07:18:51;;;;;;;10.48;4.92;;;;;;;14.77;49.36;101110.67;1593072;89;21030;-68
2021/09/07 07:21:18;;;;;;;9.13;5.03;;;;;;;14.84;49.72;101112.16;1612582;87;21060;-69
2021/09/07 07:23:47;;;;;;;6.58;3.98;;;;;;;14.91;49.95;101112.02;1620992;87;21512;-70
2021/09/07 07:26:13;;;;;;;7.45;4.45;;;;;;;14.99;49.91;101112.95;1643073;87;20975;-65
2021/09/07 07:28:40;;;;;;;11.68;4.80;;;;;;;15.05;49.75;101110.64;1642760;87;21273;-67
2021/09/07 07:31:07;;;;;;;10.50;6.12;;;;;;;15.11;49.25;101108.28;1648343;87;21063;-70
2021/09/07 07:33:33;;;;;;;7.40;4.72;;;;;;;15.14;49.09;101113.77;1598371;88;21547;-68
2021/09/07 07:36:00;;;;;;;8.75;4.85;;;;;;;15.17;49.10;101111.91;1635253;87;21138;-68
2021/09/07 07:38:26;;;;;;;6.53;4.22;;;;;;;15.21;49.10;101107.10;1641118;87;21139;-70
2021/09/07 07:40:52;;;;;;;9.45;4.85;;;;;;;15.28;48.51;101106.95;1641416;87;21288;-67
2021/09/07 07:43:23;;;;;;;5.75;3.35;;;;;;;15.35;47.82;101113.58;1647351;87;20971;-67
2021/09/07 07:45:47;;;;;;;7.72;4.28;;;;;;;15.39;45.97;101107.41;1597278;89;21113;-67
2021/09/07 07:48:15;;;;;;;8.90;4.15;;;;;;;15.47;46.39;101115.13;1623507;87;21076;-69
2021/09/07 07:50:42;;;;;;;6.85;3.40;;;;;;;15.55;46.83;101111.19;1597602;89;21049;-67
2021/09/07 07:53:08;;;;;;;7.22;4.35;;;;;;;15.60;46.34;101110.74;1590871;90;21182;-67
2021/09/07 07:55:35;;;;;;;11.75;4.08;;;;;;;15.66;46.15;101113.00;1572317;91;21073;-68
2021/09/07 07:58:02;;;;;;;7.85;4.17;;;;;;;15.74;45.92;101106.32;1597030;89;21007;-68
2021/09/07 08:00:28;;;;;;;4.17;3.05;;;;;;;15.78;45.44;101108.84;1597669;89;21106;-69
2021/09/07 08:02:54;;;;;;;5.70;3.62;;;;;;;15.81;45.21;101108.34;1601147;88;21507;-67
2021/09/07 08:05:20;;;;;;;5.03;4.03;;;;;;;15.86;45.23;101098.91;1596272;89;21250;-68
2021/09/07 08:07:48;;;;;;;6.80;3.75;;;;;;;15.93;44.78;101105.78;1587330;89;20915;-69
2021/09/07 08:10:15;;;;;;;8.05;4.28;;;;;;;15.99;44.50;101098.02;1588126;89;21056;-69
2021/09/07 08:12:41;;;;;;;5.78;4.10;;;;;;;16.04;44.53;101098.61;1593260;89;21091;-68
2021/09/07 08:15:10;;;;;;;4.50;3.95;;;;;;;16.09;44.61;101091.89;1643512;87;21046;-68
2021/09/07 08:17:37;;;;;;;8.53;3.47;;;;;;;16.17;44.69;101099.59;1626618;87;21100;-68
2021/09/07 08:20:05;;;;;;;5.30;3.00;;;;;;;16.25;44.30;101095.09;1620239;88;21016;-68
2021/09/07 08:22:31;;;;;;;6.10;3.55;;;;;;;16.31;43.95;101091.34;1618377;88;21072;-67
2021/09/07 08:24:58;;;;;;;4.42;3.35;;;;;;;16.36;43.28;101100.09;1620334;88;21539;-68
2021/09/07 08:27:24;;;;;;;5.40;3.62;;;;;;;16.41;42.94;101104.22;1617014;88;21126;-68
2021/09/07 08:29:51;;;;;;;3.45;2.85;;;;;;;16.40;42.41;101094.45;1606033;87;21639;-67
2021/09/07 08:32:17;;;;;;;5.03;3.45;;;;;;;16.40;42.02;101087.67;1610779;88;21613;-69
2021/09/07 08:34:44;;;;;;;8.53;2.70;;;;;;;16.42;42.12;101097.72;1634405;87;21112;-69
2021/09/07 08:37:11;;;;;;;8.40;3.95;;;;;;;16.43;41.65;101098.02;1622585;85;21056;-67
2021/09/07 08:39:37;;;;;;;4.37;2.67;;;;;;;16.43;41.84;101100.20;1634274;87;21535;-69
2021/09/07 08:42:09;;;;;;;3.67;2.70;;;;;;;16.42;41.96;101087.69;1645485;87;21465;-68
2021/09/07 08:44:36;;;;;;;3.98;2.85;;;;;;;16.43;41.98;101090.69;1596366;88;21109;-69
2021/09/07 08:47:03;;;;;;;9.68;3.52;;;;;;;16.48;41.65;101086.68;1617925;88;21107;-68
2021/09/07 08:49:30;;;;;;;9.13;3.92;;;;;;;16.52;41.48;101093.23;1617161;88;21130;-65
2021/09/07 08:51:56;;;;;;;8.80;3.90;;;;;;;16.60;41.15;101093.34;1631369;87;21108;-65
2021/09/07 08:54:22;;;;;;;8.60;3.15;;;;;;;16.66;41.39;101089.61;1618271;88;21172;-67
2021/09/07 08:56:49;;;;;;;7.30;2.90;;;;;;;16.76;41.19;101087.00;1646686;87;20995;-67
2021/09/07 08:59:15;;;;;;;8.25;2.77;;;;;;;16.85;41.02;101092.25;1619810;87;21527;-68
2021/09/07 09:01:46;;;;;;;5.30;2.87;;;;;;;16.98;40.04;101099.16;1624989;87;21046;-68
2021/09/07 09:04:35;;;;;;;8.20;2.85;;;;;;;16.99;39.79;101085.31;1613874;87;21558;-71
2021/09/07 09:07:00;;;;;;;7.20;3.00;;;;;;;17.03;39.94;101083.43;1632959;87;20997;-70
2021/09/07 09:09:38;;;;;;;6.05;3.35;;;;;;;17.10;39.92;101081.33;1639323;87;20991;-68
2021/09/07 09:12:06;;;;;;;3.37;2.67;;;;;;;17.13;39.55;101087.59;1646490;87;21008;-67
2021/09/07 09:14:44;;;;;;;6.05;2.95;;;;;;;17.12;38.80;101079.98;1647148;86;20951;-70
2021/09/07 09:17:29;;;;;;;10.18;2.45;;;;;;;17.11;38.59;101078.90;1644872;87;21043;-72
2021/09/07 09:20:08;;;;;;;8.73;3.67;;;;;;;17.11;38.71;101081.08;1635853;87;20999;-69
2021/09/07 09:22:56;;;;;;;4.20;2.72;;;;;;;17.16;38.91;101079.77;1624334;87;21054;-72
2021/09/07 09:25:27;;;;;;;7.12;2.52;;;;;;;17.26;38.65;101078.49;1645796;87;21059;-69
2021/09/07 09:27:59;;;;;;;14.15;2.83;;;;;;;17.40;38.32;101075.61;1619668;88;21638;-69
2021/09/07 09:30:52;;;;;;;4.33;2.60;;;;;;;17.52;38.51;101085.45;1644381;87;21693;-74
2021/09/07 09:33:25;;;;;;;5.58;2.67;;;;;;;17.64;38.25;101086.13;1612192;88;21086;-74
2021/09/07 09:36:02;;;;;;;4.12;2.40;;;;;;;17.72;37.72;101086.45;1608042;88;20999;-72
2021/09/07 09:38:34;;;;;;;4.92;2.75;;;;;;;17.75;37.90;101077.75;1643028;85;21523;-75
2021/09/07 09:41:08;;;;;;;4.62;2.30;;;;;;;17.77;37.72;101088.38;1636190;87;21544;-74
2021/09/07 09:43:50;;;;;;;3.62;2.92;;;;;;;17.79;37.49;101076.70;1655547;86;21000;-71
2021/09/07 09:46:24;;;;;;;4.17;2.72;;;;;;;17.79;37.81;101077.50;1643937;86;21232;-71
2021/09/07 09:48:54;;;;;;;5.03;2.98;;;;;;;17.81;38.27;101079.42;1641347;87;20991;-79
2021/09/07 09:51:23;;;;;;;6.65;3.12;;;;;;;17.83;38.34;101077.27;1643088;86;21531;-75
2021/09/07 09:53:51;;;;;;;9.03;3.55;;;;;;;17.83;38.44;101076.45;1668529;85;21063;-75
2021/09/07 09:56:17;;;;;;;8.38;3.80;;;;;;;17.83;38.52;101073.19;1648428;86;21102;-76
2021/09/07 09:58:44;;;;;;;11.20;3.37;;;;;;;17.80;38.71;101077.78;1671889;85;21358;-75
2021/09/07 10:01:10;;;;;;;6.22;3.75;;;;;;;17.83;38.69;101079.99;1667669;85;21536;-76
2021/09/07 10:03:42;;;;;;;7.78;4.12;;;;;;;17.85;38.78;101076.98;1657588;85;21043;-76
2021/09/07 10:06:09;;;;;;;5.58;3.33;;;;;;;17.83;38.88;101081.36;1630870;87;21058;-79
2021/09/07 10:08:40;;;;;;;11.97;3.25;;;;;;;17.87;39.04;101069.39;1662619;86;21126;-75
2021/09/07 10:11:12;;;;;;;7.27;3.87;;;;;;;17.93;38.82;101079.23;1668835;85;21035;-74
2021/09/07 10:13:44;;;;;;;7.60;3.92;;;;;;;17.96;39.02;101082.77;1668286;85;21079;-77
2021/09/07 10:16:18;;;;;;;8.78;3.27;;;;;;;17.96;39.48;101071.88;1662472;85;21039;-79
2021/09/07 10:18:52;;;;;;;12.58;3.65;;;;;;;17.95;39.60;101076.22;1641245;87;21537;-80
2021/09/07 10:26:44;;;;;;;6.00;3.37;;;;;;;18.02;39.68;101076.28;1651110;86;20995;-79
2021/09/07 10:29:17;;;;;;;7.78;3.30;;;;;;;18.06;39.76;101071.94;1668535;86;21055;-70
2021/09/07 10:31:51;;;;;;;7.65;3.17;;;;;;;18.09;39.78;101074.66;1668634;86;21067;-70
2021/09/07 10:34:28;;;;;;;3.77;2.75;;;;;;;18.13;39.58;101071.13;1644479;86;20964;-74
2021/09/07 10:37:04;;;;;;;4.05;2.62;;;;;;;18.20;39.43;101069.53;1667556;86;21560;-77
2021/09/07 10:39:42;;;;;;;12.60;3.42;;;;;;;18.26;39.27;101061.67;1668814;86;21031;-74
2021/09/07 10:42:13;;;;;;;4.55;3.50;;;;;;;18.35;39.15;101059.23;1667268;85;21549;-76
2021/09/07 10:44:42;;;;;;;6.58;3.20;;;;;;;18.46;38.63;101059.55;1617199;87;21589;-78
2021/09/07 10:47:14;;;;;;;7.35;3.87;;;;;;;18.61;38.21;101071.86;1635608;87;21059;-78
2021/09/07 10:49:55;;;;;;;4.47;3.23;;;;;;;18.72;38.11;101063.98;1650900;86;21067;-74
2021/09/07 10:52:32;;;;;;;5.72;2.70;;;;;;;18.84;37.89;101071.37;1648066;86;21044;-76
2021/09/07 10:55:10;;;;;;;6.78;4.60;;;;;;;19.09;37.30;101067.83;1642619;86;21139;-70
2021/09/07 10:57:43;;;;;;;7.65;3.20;;;;;;;19.25;36.01;101068.66;1643891;86;21609;-70
2021/09/07 11:00:28;;;;;;;7.37;3.02;;;;;;;19.22;36.22;101062.39;1651770;86;21403;-71
2021/09/07 11:02:57;;;;;;;8.33;3.33;;;;;;;19.26;35.73;101055.29;1660281;86;21077;-75
2021/09/07 11:05:32;;;;;;;4.25;2.95;;;;;;;19.29;35.89;101065.64;1659144;85;21027;-74
2021/09/07 11:08:18;;;;;;;5.95;3.08;;;;;;;19.26;35.73;101066.20;1638579;87;21036;-70
2021/09/07 11:10:55;;;;;;;9.35;3.60;;;;;;;19.23;36.01;101055.85;1657230;86;21139;-69
2021/09/07 11:13:27;;;;;;;6.45;3.27;;;;;;;19.34;36.18;101054.73;1664219;85;21100;-70
2021/09/07 11:16:01;;;;;;;4.55;3.77;;;;;;;19.40;35.86;101048.19;1672584;85;22207;-71
2021/09/07 11:18:31;;;;;;;4.55;3.45;;;;;;;19.51;35.72;101049.30;1626025;85;21126;-71
2021/09/07 11:21:02;;;;;;;7.65;2.87;;;;;;;19.52;35.36;101047.36;1705473;84;21012;-72
2021/09/07 11:23:31;;;;;;;6.15;3.12;;;;;;;19.53;35.50;101046.27;1661942;84;21512;-69
2021/09/07 11:26:11;;;;;;;8.53;3.25;;;;;;;19.65;35.10;101041.34;1624795;87;21585;-70
2021/09/07 11:28:43;;;;;;;3.47;2.85;;;;;;;19.69;35.31;101032.05;1679174;85;21532;-71
2021/09/07 11:31:11;;;;;;;4.28;3.22;;;;;;;19.80;36.15;101037.76;1643283;86;21102;-71